Time;durP1;ratioP1;P1;durP2;ratioP2;P2;SDS_P1;SDS_P2;PMS_P1;PMS_P2;Temp;Humidity;BMP_temperature;BMP_pressure;BME280_temperature;BME280_humidity;BME280_pressure;Samples;Min_cycle;Max_cycle;Signal;HPM_P1;HPM_P2
2022/10/21 00:01:54;;;;;;;6.00;3.55;;;10.40;99.90;;;;;;5800471;24;20251;-87
2022/10/21 00:25:33;;;;;;;3.97;3.40;;;10.20;99.90;;;;;;5922170;24;21168;-87
2022/10/21 01:22:35;;;;;;;3.72;3.30;;;9.80;99.90;;;;;;5844445;24;20187;-86
2022/10/21 01:41:16;;;;;;;4.07;3.63;;;9.70;99.90;;;;;;5893882;24;20199;-87
2022/10/21 01:44:24;;;;;;;4.05;3.40;;;9.60;99.90;;;;;;5951037;23;20192;-86
2022/10/21 02:20:22;;;;;;;4.30;3.90;;;9.50;99.90;;;;;;6115472;23;20225;-89
2022/10/21 02:33:30;;;;;;;5.10;4.10;;;9.40;99.90;;;;;;5991796;23;20185;-88
2022/10/21 02:40:07;;;;;;;4.05;3.65;;;9.40;99.90;;;;;;6065147;23;20236;-88
2022/10/21 02:42:49;;;;;;;4.43;4.03;;;9.40;99.90;;;;;;6065596;23;20181;-89
2022/10/21 02:45:18;;;;;;;4.13;3.70;;;9.40;99.90;;;;;;6065601;23;20177;-89
2022/10/21 02:47:49;;;;;;;3.70;3.40;;;9.40;99.90;;;;;;6065674;23;20190;-89
2022/10/21 02:50:25;;;;;;;3.53;3.30;;;9.40;99.90;;;;;;6065576;23;20193;-89
2022/10/21 02:52:56;;;;;;;4.57;3.80;;;9.30;99.90;;;;;;6065626;23;20208;-88
2022/10/21 02:55:37;;;;;;;4.55;4.15;;;9.40;99.90;;;;;;6065670;23;20177;-89
2022/10/21 02:58:13;;;;;;;5.70;4.13;;;9.30;99.90;;;;;;6065729;23;20181;-89
2022/10/21 03:01:01;;;;;;;;;;;;;;;;;;;;;
2022/10/21 03:35:54;;;;;;;5.85;4.35;;;9.30;99.90;;;;;;5971208;23;20187;-86
2022/10/21 04:19:32;;;;;;;5.47;4.43;;;9.10;99.90;;;;;;5687343;25;20206;-86
2022/10/21 04:22:36;;;;;;;6.28;4.35;;;9.00;99.90;;;;;;5831151;24;20188;-86
2022/10/21 04:35:17;;;;;;;4.15;3.75;;;8.90;99.90;;;;;;5953282;24;20186;-88
2022/10/21 04:37:45;;;;;;;4.10;3.80;;;8.90;99.90;;;;;;6044728;23;20180;-88
2022/10/21 04:40:24;;;;;;;4.75;4.00;;;8.90;99.90;;;;;;6066085;23;20215;-86
2022/10/21 04:42:55;;;;;;;5.78;5.03;;;8.80;99.90;;;;;;6078046;23;20172;-87
2022/10/21 04:45:23;;;;;;;6.28;4.72;;;8.90;99.90;;;;;;6095485;23;20259;-88
2022/10/21 04:47:52;;;;;;;5.70;4.18;;;8.80;99.90;;;;;;6095235;23;20208;-88
2022/10/21 04:50:22;;;;;;;4.03;3.63;;;8.80;99.90;;;;;;6149595;23;20201;-88
2022/10/21 04:56:04;;;;;;;21.25;4.65;;;8.80;99.90;;;;;;6183216;23;20189;-86
2022/10/21 05:05:07;;;;;;;4.57;4.20;;;8.80;99.90;;;;;;6037401;23;20177;-87
2022/10/21 05:08:26;;;;;;;4.75;4.22;;;8.80;99.90;;;;;;6072128;23;20197;-87
2022/10/21 05:15:19;;;;;;;3.97;3.67;;;8.70;99.90;;;;;;6186470;23;20170;-86
2022/10/21 05:18:36;;;;;;;4.32;3.72;;;8.70;99.90;;;;;;6185729;23;20190;-86
2022/10/21 05:21:14;;;;;;;4.97;4.22;;;8.70;99.90;;;;;;6147444;23;20269;-86
2022/10/21 05:24:07;;;;;;;4.95;4.05;;;8.70;99.90;;;;;;6186239;23;20174;-86
2022/10/21 05:27:17;;;;;;;3.97;3.67;;;8.70;99.90;;;;;;6186210;23;20181;-86
2022/10/21 05:29:46;;;;;;;12.77;4.93;;;8.70;99.90;;;;;;6185924;23;20190;-88
2022/10/21 05:32:16;;;;;;;4.80;4.22;;;8.70;99.90;;;;;;6186549;23;20175;-88
2022/10/21 05:34:45;;;;;;;8.65;5.28;;;8.70;99.90;;;;;;6186336;23;20177;-88
2022/10/21 05:40:57;;;;;;;4.45;4.05;;;8.70;99.90;;;;;;6166782;23;20225;-86
2022/10/21 05:43:54;;;;;;;4.80;4.32;;;8.70;99.90;;;;;;6184619;23;20174;-86
2022/10/21 06:01:04;;;;;;;5.88;5.18;;;8.50;99.90;;;;;;6023887;23;20308;-86
2022/10/21 06:04:01;;;;;;;4.93;4.30;;;8.50;99.90;;;;;;6094801;23;20175;-86
2022/10/21 06:07:14;;;;;;;4.72;4.30;;;8.60;99.90;;;;;;6092173;23;20177;-87
2022/10/21 06:09:51;;;;;;;4.93;4.50;;;8.60;99.90;;;;;;6094335;23;20207;-86
2022/10/21 06:12:33;;;;;;;4.05;3.65;;;8.60;99.90;;;;;;6094382;23;20176;-87
2022/10/21 06:38:46;;;;;;;9.68;5.18;;;8.90;99.90;;;;;;6154257;23;20250;-87
2022/10/21 06:58:00;;;;;;;4.47;3.97;;;9.10;99.90;;;;;;6141078;23;20205;-87
2022/10/21 07:03:55;;;;;;;5.00;4.47;;;9.30;99.90;;;;;;6181733;23;20190;-89
2022/10/21 07:06:45;;;;;;;5.70;4.57;;;9.40;99.90;;;;;;6181880;23;20189;-86
2022/10/21 07:09:16;;;;;;;7.10;4.45;;;9.40;99.90;;;;;;6173162;23;20198;-89
2022/10/21 07:11:45;;;;;;;4.95;4.47;;;9.50;99.90;;;;;;6182280;23;20181;-89
2022/10/21 07:14:13;;;;;;;4.93;4.30;;;9.50;99.90;;;;;;6182064;23;20226;-88
2022/10/21 07:27:53;;;;;;;3.97;3.67;;;9.70;99.90;;;;;;6032858;23;20224;-87
2022/10/21 07:34:28;;;;;;;3.58;3.30;;;9.80;99.90;;;;;;6064982;23;20179;-87
2022/10/21 07:37:27;;;;;;;4.50;3.58;;;9.80;99.90;;;;;;6181181;23;20178;-87
2022/10/21 07:40:53;;;;;;;5.57;4.07;;;9.90;99.90;;;;;;6080833;23;20204;-87
2022/10/21 07:43:26;;;;;;;4.10;3.53;;;10.00;99.90;;;;;;6177604;23;20193;-87
2022/10/21 07:48:46;;;;;;;4.38;3.65;;;10.10;99.90;;;;;;6171889;23;20205;-89
2022/10/21 07:51:22;;;;;;;4.10;3.40;;;10.10;99.90;;;;;;6181002;23;20194;-87
2022/10/21 07:53:57;;;;;;;4.93;4.43;;;10.20;99.90;;;;;;6181807;23;20179;-89
2022/10/21 07:56:31;;;;;;;3.50;3.20;;;10.20;99.90;;;;;;6181307;23;20284;-86
2022/10/21 08:02:45;;;;;;;4.50;3.50;;;10.40;99.90;;;;;;6180116;23;20194;-89
2022/10/21 08:05:45;;;;;;;4.22;3.83;;;10.40;99.90;;;;;;6181280;23;20181;-87
2022/10/21 08:09:07;;;;;;;4.05;3.70;;;10.60;99.90;;;;;;6178147;23;20203;-87
2022/10/21 08:11:40;;;;;;;5.30;4.25;;;10.80;99.90;;;;;;6180476;23;20181;-89
2022/10/21 08:14:18;;;;;;;8.52;4.13;;;10.90;99.90;;;;;;6181309;23;20178;-87
2022/10/21 08:23:57;;;;;;;3.90;3.55;;;11.10;99.90;;;;;;6093407;23;20240;-87
2022/10/21 08:30:00;;;;;;;3.95;3.38;;;11.50;99.90;;;;;;6173726;23;20202;-87
2022/10/21 08:33:00;;;;;;;3.13;2.92;;;11.50;99.90;;;;;;6179696;23;20179;-88
2022/10/21 08:39:12;;;;;;;3.13;2.92;;;11.70;99.90;;;;;;6169588;23;20201;-87
2022/10/21 08:42:30;;;;;;;3.55;3.25;;;11.70;99.90;;;;;;6178212;23;20244;-87
2022/10/21 08:45:42;;;;;;;5.90;3.42;;;11.90;99.90;;;;;;6181000;23;20192;-87
2022/10/21 08:48:54;;;;;;;4.60;3.47;;;12.10;99.90;;;;;;6184998;23;20174;-86
2022/10/21 08:54:51;;;;;;;3.72;3.40;;;12.00;99.90;;;;;;6184094;23;20174;-89
2022/10/21 09:06:03;;;;;;;4.50;3.30;;;12.20;99.90;;;;;;6060416;23;20184;-87
2022/10/21 09:40:42;;;;;;;2.63;2.40;;;12.50;99.90;;;;;;5987936;23;20270;-87
2022/10/21 09:43:29;;;;;;;3.65;3.30;;;12.50;99.90;;;;;;6040339;23;20184;-87
2022/10/21 09:52:50;;;;;;;4.35;2.75;;;12.70;99.90;;;;;;6065924;23;20185;-87
2022/10/21 09:55:45;;;;;;;4.03;3.72;;;12.90;99.90;;;;;;6065644;23;20183;-87
2022/10/21 09:58:52;;;;;;;5.68;3.63;;;13.30;99.90;;;;;;6062980;23;20212;-87
2022/10/21 10:15:33;;;;;;;3.65;3.40;;;13.70;99.90;;;;;;6024506;23;20175;-86
2022/10/21 10:26:20;;;;;;;3.35;3.10;;;13.90;99.90;;;;;;6101835;23;20194;-86
2022/10/21 10:29:55;;;;;;;5.20;3.25;;;13.80;99.90;;;;;;5996092;23;20208;-87
2022/10/21 10:33:08;;;;;;;4.07;2.97;;;13.70;99.90;;;;;;6065669;23;20177;-87
2022/10/21 10:41:06;;;;;;;3.25;2.95;;;13.60;99.90;;;;;;5896122;24;20242;-86
2022/10/21 10:47:47;;;;;;;4.40;3.45;;;13.70;99.90;;;;;;5954702;23;20178;-86
2022/10/21 10:50:51;;;;;;;8.85;3.85;;;13.80;99.90;;;;;;6022978;23;20209;-87
2022/10/21 10:54:20;;;;;;;3.03;2.83;;;13.80;99.90;;;;;;6065450;23;20204;-87
2022/10/21 11:04:45;;;;;;;4.50;3.40;;;14.00;99.90;;;;;;6162595;23;20181;-87
2022/10/21 11:30:18;;;;;;;3.55;2.88;;;14.70;99.90;;;;;;6031063;23;20201;-87
2022/10/21 11:33:31;;;;;;;4.63;3.00;;;14.60;99.90;;;;;;6036227;23;20178;-86
2022/10/21 11:36:06;;;;;;;4.55;3.30;;;14.70;99.90;;;;;;6120899;23;20178;-88
2022/10/21 11:42:05;;;;;;;3.88;3.20;;;15.10;99.90;;;;;;6117449;23;20181;-88
2022/10/21 11:44:54;;;;;;;4.47;4.07;;;15.30;99.90;;;;;;6155324;23;20223;-88
2022/10/21 11:47:33;;;;;;;4.13;3.30;;;15.30;99.90;;;;;;6155367;23;20183;-88
2022/10/21 11:50:14;;;;;;;6.78;3.92;;;15.20;99.90;;;;;;6155102;23;20277;-88
2022/10/21 11:52:53;;;;;;;8.77;3.58;;;15.20;99.90;;;;;;6155378;23;20171;-88
2022/10/21 11:55:37;;;;;;;5.82;3.67;;;14.90;99.90;;;;;;6155160;23;20198;-88
2022/10/21 12:02:20;;;;;;;4.13;3.28;;;14.70;99.90;;;;;;6155427;23;20205;-86
2022/10/21 12:05:55;;;;;;;7.25;4.13;;;14.80;99.90;;;;;;5941906;23;20262;-87
2022/10/21 12:16:48;;;;;;;3.63;3.33;;;14.60;99.90;;;;;;5913781;24;20184;-87
2022/10/21 12:30:29;;;;;;;7.93;3.65;;;14.40;99.90;;;;;;6007702;23;20199;-86
2022/10/21 12:44:04;;;;;;;3.78;3.40;;;14.00;99.90;;;;;;5956953;23;20174;-87
2022/10/21 12:55:19;;;;;;;;;;;;;;;;;;;;;
2022/10/21 12:59:05;;;;;;;4.20;3.58;;;13.70;99.90;;;;;;6037841;23;20305;-87
2022/10/21 13:13:48;;;;;;;3.78;3.40;;;13.80;99.90;;;;;;5870973;24;20235;-87
2022/10/21 13:20:48;;;;;;;3.53;3.13;;;14.20;99.90;;;;;;5846242;24;20178;-89
2022/10/21 13:27:14;;;;;;;6.05;3.60;;;14.20;99.90;;;;;;5866827;24;20236;-86
2022/10/21 13:29:48;;;;;;;4.32;3.47;;;14.30;99.90;;;;;;5942404;24;20206;-87
2022/10/21 13:32:25;;;;;;;3.25;2.97;;;14.30;99.90;;;;;;5980926;24;20203;-89
2022/10/21 13:35:18;;;;;;;3.17;2.88;;;14.30;99.90;;;;;;5981009;24;20183;-86
2022/10/21 13:38:19;;;;;;;5.50;3.70;;;14.20;99.90;;;;;;6094341;23;20173;-87
2022/10/21 13:44:30;;;;;;;4.65;3.85;;;14.10;99.90;;;;;;5980303;24;20188;-87
2022/10/21 13:55:18;;;;;;;5.90;4.22;;;13.90;99.90;;;;;;5947445;24;20259;-87
2022/10/21 13:58:18;;;;;;;4.32;3.40;;;13.80;99.90;;;;;;5968650;24;20178;-87
2022/10/21 14:01:01;;;;;;;4.20;3.72;;;13.80;99.90;;;;;;5980038;24;20202;-87
2022/10/21 14:04:04;;;;;;;4.40;3.78;;;13.80;99.90;;;;;;5897808;24;20178;-87
2022/10/21 14:10:53;;;;;;;6.03;3.38;;;13.80;99.90;;;;;;5853674;24;20202;-87
2022/10/21 14:18:44;;;;;;;;;;;;;;;;;;;;;
2022/10/21 14:32:43;;;;;;;7.43;3.72;;;13.60;99.90;;;;;;5897370;24;20215;-87
2022/10/21 14:36:03;;;;;;;4.35;3.92;;;13.50;99.90;;;;;;5897541;24;20221;-87
2022/10/21 14:42:57;;;;;;;4.55;3.53;;;13.60;99.90;;;;;;6014351;23;20203;-86
2022/10/21 14:49:39;;;;;;;3.75;3.33;;;13.60;99.90;;;;;;6054291;23;20224;-88
2022/10/21 14:52:51;;;;;;;4.50;4.05;;;13.50;99.90;;;;;;6065143;23;20204;-86
2022/10/21 14:56:16;;;;;;;4.15;3.75;;;13.50;99.90;;;;;;6060095;23;20181;-86
2022/10/21 15:15:18;;;;;;;4.70;3.58;;;13.50;99.90;;;;;;5789825;24;20184;-87
2022/10/21 16:01:59;;;;;;;4.03;3.63;;;13.30;99.90;;;;;;5667062;25;20181;-87
2022/10/21 16:25:54;;;;;;;3.42;2.95;;;13.00;99.90;;;;;;5908120;24;20271;-89
2022/10/21 16:35:10;;;;;;;4.80;3.83;;;12.90;99.90;;;;;;6118324;23;20175;-89
2022/10/21 16:37:42;;;;;;;4.60;4.20;;;12.90;99.90;;;;;;6155015;23;20175;-89
2022/10/21 16:40:16;;;;;;;4.85;3.95;;;12.80;99.90;;;;;;6154926;23;20211;-89
2022/10/21 16:42:45;;;;;;;5.13;3.80;;;12.70;99.90;;;;;;6155127;23;20167;-89
2022/10/21 16:48:50;;;;;;;4.18;3.78;;;12.70;99.90;;;;;;6154886;23;20245;-89
2022/10/21 16:54:49;;;;;;;4.30;3.65;;;12.60;99.90;;;;;;5966891;23;20179;-89
2022/10/21 16:57:18;;;;;;;4.38;3.65;;;12.60;99.90;;;;;;6115646;23;20175;-89
2022/10/21 17:00:41;;;;;;;6.15;4.47;;;12.60;99.90;;;;;;6154011;23;20199;-87
2022/10/21 17:04:19;;;;;;;4.15;3.80;;;12.60;99.90;;;;;;6101754;23;20185;-87
2022/10/21 17:17:36;;;;;;;5.63;3.80;;;12.50;99.90;;;;;;5994122;23;20195;-89
2022/10/21 17:20:06;;;;;;;4.78;4.18;;;12.50;99.90;;;;;;6093577;23;20340;-89
2022/10/21 17:22:36;;;;;;;4.47;3.97;;;12.40;99.90;;;;;;6093471;23;20173;-90
2022/10/21 17:25:05;;;;;;;4.85;4.30;;;12.40;99.90;;;;;;6093351;23;20233;-90
2022/10/21 17:27:34;;;;;;;11.43;3.10;;;12.40;99.90;;;;;;6095271;23;20183;-89
2022/10/21 17:30:03;;;;;;;5.60;4.05;;;12.40;99.90;;;;;;6094748;23;20242;-89
2022/10/21 17:33:38;;;;;;;6.75;4.50;;;12.40;99.90;;;;;;6094921;23;20196;-87
2022/10/21 17:36:07;;;;;;;3.60;3.35;;;12.40;99.90;;;;;;5953718;24;20186;-89
2022/10/21 17:38:52;;;;;;;5.47;4.43;;;12.30;99.90;;;;;;5979993;24;20203;-88
2022/10/21 17:42:02;;;;;;;6.32;4.90;;;12.30;99.90;;;;;;6055423;23;20177;-87
2022/10/21 17:45:43;;;;;;;6.80;4.72;;;12.30;99.90;;;;;;6029726;23;20195;-88
2022/10/21 17:49:09;;;;;;;5.80;3.90;;;12.30;99.90;;;;;;6024569;23;20178;-88
2022/10/21 17:55:18;;;;;;;4.53;4.13;;;12.30;99.90;;;;;;6092428;23;20180;-87
2022/10/21 17:59:02;;;;;;;4.78;3.80;;;12.30;99.90;;;;;;6079980;23;20191;-87
2022/10/21 18:01:54;;;;;;;12.73;4.65;;;12.30;99.90;;;;;;6067918;23;20221;-88
2022/10/21 18:17:01;;;;;;;6.20;5.00;;;12.10;99.90;;;;;;5769580;24;20191;-88
2022/10/21 18:24:21;;;;;;;5.80;4.85;;;12.10;99.90;;;;;;5843882;24;20275;-87
2022/10/21 18:30:37;;;;;;;6.22;4.47;;;11.90;99.90;;;;;;5750029;24;20258;-88
2022/10/21 18:33:45;;;;;;;6.40;4.45;;;11.90;99.90;;;;;;5764008;24;20338;-88
2022/10/21 18:40:48;;;;;;;;;;;;;;;;;;;;;
2022/10/21 18:51:14;;;;;;;5.82;4.13;;;11.80;99.90;;;;;;5870108;24;20202;-87
2022/10/21 19:05:09;;;;;;;4.35;3.95;;;11.80;99.90;;;;;;5890865;23;20189;-87
2022/10/21 19:11:47;;;;;;;5.15;4.60;;;11.70;99.90;;;;;;6029141;23;20182;-87
2022/10/21 19:29:22;;;;;;;5.50;4.43;;;11.70;99.90;;;;;;6152202;23;20167;-87
2022/10/21 19:32:53;;;;;;;;;;;;;;;;;;;;;
2022/10/21 19:47:30;;;;;;;;;;;;;;;;;;;;;
2022/10/21 19:51:15;;;;;;;5.88;5.13;;;11.70;99.90;;;;;;5883167;24;20200;-89
2022/10/21 20:08:38;;;;;;;4.32;3.90;;;11.70;99.90;;;;;;5824341;24;20234;-91
2022/10/21 20:40:35;;;;;;;5.20;4.28;;;11.50;99.90;;;;;;5965851;23;20199;-92
2022/10/21 20:44:18;;;;;;;6.18;4.95;;;11.60;99.90;;;;;;5986789;23;20197;-95
2022/10/21 20:47:08;;;;;;;6.47;4.47;;;11.60;99.90;;;;;;5993651;23;20246;-82
2022/10/21 20:49:37;;;;;;;7.10;4.95;;;11.60;99.90;;;;;;6016873;23;20197;-82
2022/10/21 20:52:05;;;;;;;5.32;4.82;;;11.50;99.90;;;;;;6124442;23;20175;-82
2022/10/21 20:54:33;;;;;;;7.32;5.07;;;11.50;99.90;;;;;;6183795;23;20190;-82
2022/10/21 20:57:01;;;;;;;10.98;5.32;;;11.50;99.90;;;;;;6184522;23;20182;-82
2022/10/21 20:59:30;;;;;;;5.45;4.53;;;11.50;99.90;;;;;;6183819;23;20195;-81
2022/10/21 21:01:58;;;;;;;5.28;4.50;;;11.50;99.90;;;;;;6186126;23;20174;-81
2022/10/21 21:04:27;;;;;;;4.55;4.15;;;11.40;99.90;;;;;;6186029;23;20173;-81
2022/10/21 21:06:56;;;;;;;6.07;4.30;;;11.40;99.90;;;;;;6186152;23;20177;-82
2022/10/21 21:09:24;;;;;;;9.90;4.95;;;11.50;99.90;;;;;;6185607;23;20201;-81
2022/10/21 21:12:13;;;;;;;5.35;4.65;;;11.50;99.90;;;;;;6185623;23;20179;-82
2022/10/21 21:14:41;;;;;;;7.22;4.18;;;11.50;99.90;;;;;;6186388;23;20187;-81
2022/10/21 21:17:09;;;;;;;5.70;4.43;;;11.50;99.90;;;;;;6185962;23;20229;-81
2022/10/21 21:19:40;;;;;;;5.40;4.47;;;11.50;99.90;;;;;;6185858;23;20203;-81
2022/10/21 21:22:08;;;;;;;4.57;4.15;;;11.50;99.90;;;;;;6185997;23;20167;-81
2022/10/21 21:24:36;;;;;;;8.60;5.28;;;11.50;99.90;;;;;;6185965;23;20167;-81
2022/10/21 21:27:05;;;;;;;6.55;4.93;;;11.50;99.90;;;;;;6185897;23;20175;-81
2022/10/21 21:29:33;;;;;;;4.78;4.38;;;11.50;99.90;;;;;;6185868;23;20190;-81
2022/10/21 21:32:01;;;;;;;6.13;4.00;;;11.40;99.90;;;;;;6185746;23;20175;-81
2022/10/21 21:34:29;;;;;;;4.90;4.50;;;11.40;99.90;;;;;;6185886;23;20198;-81
2022/10/21 21:36:59;;;;;;;5.10;4.60;;;11.50;99.90;;;;;;6185895;23;20179;-82
2022/10/21 21:39:27;;;;;;;6.05;5.40;;;11.40;99.90;;;;;;6184887;23;20206;-81
2022/10/21 21:41:55;;;;;;;4.30;3.97;;;11.40;99.90;;;;;;6185899;23;20182;-81
2022/10/21 21:44:24;;;;;;;5.55;5.05;;;11.40;99.90;;;;;;6185225;23;20191;-82
2022/10/21 21:46:52;;;;;;;7.35;5.70;;;11.40;99.90;;;;;;6186121;23;20174;-82
2022/10/21 21:49:20;;;;;;;15.40;5.88;;;11.40;99.90;;;;;;6185253;23;20198;-81
2022/10/21 21:51:48;;;;;;;4.63;4.15;;;11.30;99.90;;;;;;6185706;23;20178;-81
2022/10/21 21:54:18;;;;;;;4.55;4.15;;;11.30;99.90;;;;;;6186167;23;20194;-81
2022/10/21 21:56:46;;;;;;;4.57;4.15;;;11.30;99.90;;;;;;6185786;23;20171;-81
2022/10/21 21:59:14;;;;;;;5.63;4.90;;;11.30;99.90;;;;;;6185517;23;20217;-81
2022/10/21 22:01:42;;;;;;;5.45;3.97;;;11.30;99.90;;;;;;6185623;23;20182;-81
2022/10/21 22:04:11;;;;;;;5.13;4.60;;;11.30;99.90;;;;;;6185808;23;20166;-82
2022/10/21 22:06:39;;;;;;;7.10;4.45;;;11.20;99.90;;;;;;6186309;23;20175;-81
2022/10/21 22:09:10;;;;;;;4.55;4.15;;;11.20;99.90;;;;;;6185467;23;20197;-82
2022/10/21 22:11:40;;;;;;;5.57;4.88;;;11.30;99.90;;;;;;6185480;23;20175;-82
2022/10/21 22:14:08;;;;;;;4.90;4.47;;;11.20;99.90;;;;;;6185076;23;20197;-81
2022/10/21 22:16:37;;;;;;;7.13;5.00;;;11.30;99.90;;;;;;6185409;23;20175;-81
2022/10/21 22:19:05;;;;;;;4.57;4.00;;;11.20;99.90;;;;;;6185682;23;20201;-81
2022/10/21 22:21:33;;;;;;;6.13;4.88;;;11.20;99.90;;;;;;6186269;23;20178;-81
2022/10/21 22:24:01;;;;;;;6.75;4.93;;;11.30;99.90;;;;;;6185655;23;20174;-83
2022/10/21 22:26:30;;;;;;;5.65;4.75;;;11.20;99.90;;;;;;6185461;23;20175;-81
2022/10/21 22:28:59;;;;;;;5.03;4.60;;;11.20;99.90;;;;;;6185204;23;20194;-82
2022/10/21 22:31:27;;;;;;;7.47;5.55;;;11.10;99.90;;;;;;6185279;23;20175;-82
2022/10/21 22:33:59;;;;;;;6.03;5.35;;;11.20;99.90;;;;;;6185499;23;20175;-81
2022/10/21 22:36:27;;;;;;;4.80;4.40;;;11.20;99.90;;;;;;6185588;23;20170;-82
2022/10/21 22:38:56;;;;;;;5.78;4.63;;;11.20;99.90;;;;;;6184792;23;20195;-81
2022/10/21 22:41:24;;;;;;;6.35;5.05;;;11.20;99.90;;;;;;6185460;23;20174;-82
2022/10/21 22:43:52;;;;;;;5.47;4.95;;;11.20;99.90;;;;;;6185587;23;20190;-82
2022/10/21 22:46:22;;;;;;;6.60;4.97;;;11.20;99.90;;;;;;6185617;23;20178;-82
2022/10/21 22:49:06;;;;;;;5.55;5.05;;;11.20;99.90;;;;;;6184977;23;20228;-81
2022/10/21 22:51:34;;;;;;;8.63;5.18;;;11.20;99.90;;;;;;6185242;23;20220;-82
2022/10/21 22:54:02;;;;;;;4.55;4.15;;;11.10;99.90;;;;;;6185168;23;20174;-81
2022/10/21 22:56:38;;;;;;;7.00;5.53;;;11.10;99.90;;;;;;6185680;23;20162;-81
2022/10/21 22:59:06;;;;;;;4.93;4.53;;;11.10;99.90;;;;;;6185027;23;20194;-81
2022/10/21 23:01:36;;;;;;;6.47;4.88;;;11.10;99.90;;;;;;6185397;23;20174;-82
2022/10/21 23:04:05;;;;;;;10.63;5.10;;;11.00;99.90;;;;;;6185250;23;20174;-81
2022/10/21 23:06:34;;;;;;;5.45;4.53;;;10.90;99.90;;;;;;6184812;23;20186;-82
2022/10/21 23:09:04;;;;;;;5.88;4.90;;;10.80;99.90;;;;;;6185224;23;20201;-82
2022/10/21 23:11:33;;;;;;;5.25;4.72;;;10.90;99.90;;;;;;6185320;23;20173;-83
2022/10/21 23:14:01;;;;;;;8.68;5.40;;;10.80;99.90;;;;;;6185464;23;20181;-81
2022/10/21 23:16:38;;;;;;;5.57;4.72;;;10.80;99.90;;;;;;6184863;23;20169;-82
2022/10/21 23:19:08;;;;;;;5.13;4.57;;;10.70;99.90;;;;;;6184454;23;20197;-82
2022/10/21 23:21:36;;;;;;;9.52;4.57;;;10.80;99.90;;;;;;6185062;23;20177;-81
2022/10/21 23:24:05;;;;;;;7.03;5.03;;;10.80;99.90;;;;;;6185075;23;20178;-81
2022/10/21 23:26:34;;;;;;;9.57;5.05;;;10.80;99.90;;;;;;6185495;23;20173;-81
2022/10/21 23:29:02;;;;;;;5.95;5.22;;;10.70;99.90;;;;;;6185064;23;20190;-81
2022/10/21 23:31:31;;;;;;;5.10;4.60;;;10.70;99.90;;;;;;6184824;23;20178;-81
2022/10/21 23:34:01;;;;;;;4.63;4.18;;;10.70;99.90;;;;;;6184775;23;20170;-81
2022/10/21 23:36:29;;;;;;;4.93;4.43;;;10.70;99.90;;;;;;6184652;23;20202;-81
2022/10/21 23:38:58;;;;;;;6.70;5.95;;;10.70;99.90;;;;;;6185233;23;20194;-81
2022/10/21 23:41:26;;;;;;;4.70;4.22;;;10.70;99.90;;;;;;6185354;23;20182;-83
2022/10/21 23:43:54;;;;;;;7.45;4.63;;;10.70;99.90;;;;;;6185068;23;20182;-81
2022/10/21 23:46:23;;;;;;;5.38;4.88;;;10.80;99.90;;;;;;6184978;23;20170;-81
2022/10/21 23:48:51;;;;;;;5.10;4.32;;;10.80;99.90;;;;;;6184452;23;20194;-81
2022/10/21 23:51:21;;;;;;;5.55;4.95;;;10.80;99.90;;;;;;6185190;23;20181;-82
2022/10/21 23:53:49;;;;;;;8.13;5.40;;;10.80;99.90;;;;;;6184981;23;20171;-81
2022/10/21 23:56:17;;;;;;;5.65;5.07;;;10.80;99.90;;;;;;6184706;23;20197;-81
2022/10/21 23:58:45;;;;;;;5.13;4.43;;;10.80;99.90;;;;;;6184656;23;20213;-81
